Flight Briefing for CPX421

Departure Arrival
Miami International Airport (KMIA)
Click to view FAA NOTAMS
Norman Manley International Airport (MKJP)
Click to view FAA NOTAMS
Departure Time Arrival Time
N/A N/A
Aircraft Distance
B757-200SF 518nm
Departure METAR Arrival METAR
KMIA 232353Z 04014G20KT 10SM SCT033 27/19 A3008 RMK AO2 SLP185 T02720189 10311 20272 53003 MKJP 232300Z 08006KT 9999 -RA SCT016 FEW020CB BKN034 25/23 Q1012 RERA
Suggested Route
EONNS2 EONNS A509 URSUS UA301 MLY


View recent IFR Routes data
Notes



Charts and Procedures

Charts for KMIA
No chart available
Charts for MKJP
No chart available

Windy.com Weather Map